Time;durP1;ratioP1;P1;durP2;ratioP2;P2;SDS_P1;SDS_P2;PMS_P1;PMS_P2;Temp;Humidity;BMP_temperature;BMP_pressure;BME280_temperature;BME280_humidity;BME280_pressure;Samples;Min_cycle;Max_cycle;Signal;HPM_P1;HPM_P2
2022/09/17 00:04:55;;;;;;;7.70;7.00;;;25.00;63.50;;;;;;4833020;54;21624;-29
2022/09/17 00:09:56;;;;;;;7.35;6.70;;;25.00;63.60;;;;;;4817172;54;21478;-34
2022/09/17 00:14:57;;;;;;;7.62;6.85;;;25.00;63.60;;;;;;4799908;54;21012;-30
2022/09/17 00:19:58;;;;;;;7.57;6.78;;;25.00;63.60;;;;;;4840029;54;21023;-29
2022/09/17 00:24:59;;;;;;;8.07;7.20;;;25.00;63.50;;;;;;4862266;54;21028;-30
2022/09/17 00:29:59;;;;;;;7.53;6.82;;;25.00;63.60;;;;;;4794829;58;21083;-27
2022/09/17 00:35:00;;;;;;;7.55;6.85;;;25.00;63.50;;;;;;4809369;54;21012;-33
2022/09/17 00:40:02;;;;;;;6.85;6.25;;;25.00;63.50;;;;;;4863005;54;21022;-28
2022/09/17 00:45:04;;;;;;;7.15;6.45;;;25.00;63.50;;;;;;4835532;54;20992;-27
2022/09/17 00:50:12;;;;;;;7.12;6.53;;;25.00;63.50;;;;;;4795551;55;21489;-31
2022/09/17 00:58:45;;;;;;;7.03;6.43;;;25.00;63.50;;;;;;4796562;54;21035;-30
2022/09/17 01:03:46;;;;;;;6.80;6.20;;;25.00;63.60;;;;;;4825963;54;21036;-30
2022/09/17 01:09:29;;;;;;;6.72;6.18;;;25.00;63.50;;;;;;4796026;58;21501;-30
2022/09/17 01:24:41;;;;;;;6.72;6.12;;;25.00;63.50;;;;;;4810558;54;21004;-29
2022/09/17 01:31:26;;;;;;;6.82;6.12;;;25.00;63.50;;;;;;4849989;54;21534;-29
2022/09/17 01:36:58;;;;;;;7.07;6.47;;;25.00;63.40;;;;;;4818881;54;21035;-26
2022/09/17 01:45:42;;;;;;;6.47;5.70;;;25.00;63.50;;;;;;4863440;54;21004;-32
2022/09/17 01:51:03;;;;;;;6.53;5.95;;;25.00;63.40;;;;;;4862799;54;21007;-29
2022/09/17 01:56:06;;;;;;;6.20;5.68;;;24.90;63.40;;;;;;4810426;54;21107;-29
2022/09/17 02:01:09;;;;;;;6.70;6.10;;;24.90;63.40;;;;;;4810353;54;21573;-29
2022/09/17 02:06:16;;;;;;;6.45;5.87;;;25.00;63.40;;;;;;4812382;54;21055;-28
2022/09/17 02:11:18;;;;;;;;;;;24.90;63.30;;;;;;4821201;54;21107;-34
2022/09/17 02:16:28;;;;;;;5.97;5.47;;;24.90;63.30;;;;;;4836268;54;20071;-33
2022/09/17 02:21:44;;;;;;;6.05;5.55;;;24.90;63.30;;;;;;4832093;54;21012;-32
2022/09/17 02:27:09;;;;;;;6.32;5.72;;;25.00;63.30;;;;;;4797689;54;21055;-29
2022/09/17 02:32:13;;;;;;;5.62;5.12;;;24.90;63.20;;;;;;4835217;54;21485;-29
2022/09/17 02:37:14;;;;;;;5.70;5.20;;;24.90;63.20;;;;;;4831823;54;21150;-30
2022/09/17 02:42:52;;;;;;;6.00;5.40;;;24.90;63.30;;;;;;4812548;54;21538;-28
2022/09/17 02:48:31;;;;;;;6.00;5.50;;;24.90;63.20;;;;;;4795765;55;21124;-34
2022/09/17 02:54:02;;;;;;;5.07;4.68;;;24.90;63.10;;;;;;4796966;54;21502;-29
2022/09/17 03:00:06;;;;;;;5.45;4.95;;;24.90;63.10;;;;;;4817497;54;21585;-29
2022/09/17 03:05:08;;;;;;;5.40;5.00;;;24.90;63.10;;;;;;4800451;54;20980;-34
2022/09/17 03:10:09;;;;;;;5.40;4.97;;;25.00;63.10;;;;;;4804531;54;21063;-32
2022/09/17 03:15:10;;;;;;;5.10;4.70;;;24.90;63.00;;;;;;4817030;54;21047;-32
2022/09/17 03:20:11;;;;;;;5.30;4.90;;;24.90;62.90;;;;;;4801730;54;21043;-34
2022/09/17 03:25:11;;;;;;;5.28;4.78;;;24.90;62.90;;;;;;4827543;54;21059;-30
2022/09/17 03:30:12;;;;;;;4.82;4.43;;;24.90;62.80;;;;;;4827221;54;20991;-28
2022/09/17 03:35:13;;;;;;;4.80;4.30;;;24.90;62.80;;;;;;4799805;54;20999;-30
2022/09/17 03:40:14;;;;;;;5.22;4.72;;;24.90;62.70;;;;;;4801370;54;21485;-26
2022/09/17 03:45:15;;;;;;;5.05;4.65;;;24.90;62.60;;;;;;4831903;54;21497;-29
2022/09/17 03:50:16;;;;;;;4.93;4.57;;;24.90;62.50;;;;;;4803417;54;21044;-29
2022/09/17 03:55:16;;;;;;;4.85;4.45;;;24.90;62.40;;;;;;4802830;54;21019;-28
2022/09/17 04:00:17;;;;;;;4.68;4.28;;;24.90;62.30;;;;;;4820367;54;21052;-33
2022/09/17 04:05:18;;;;;;;4.57;4.18;;;24.90;62.10;;;;;;4805476;54;21059;-30
2022/09/17 04:10:19;;;;;;;4.62;4.22;;;24.90;62.00;;;;;;4798183;54;21032;-29
2022/09/17 04:15:20;;;;;;;4.15;3.85;;;24.90;61.90;;;;;;4796008;54;21016;-32
2022/09/17 04:20:20;;;;;;;4.45;4.15;;;24.90;61.80;;;;;;4814399;54;21028;-33
2022/09/17 04:25:21;;;;;;;4.55;4.15;;;24.90;61.70;;;;;;4805126;54;21584;-30
2022/09/17 04:30:22;;;;;;;4.20;3.90;;;24.90;61.50;;;;;;4806381;54;21482;-30
2022/09/17 04:35:23;;;;;;;4.45;4.15;;;24.90;61.40;;;;;;4814812;54;21075;-29
2022/09/17 04:40:25;;;;;;;4.00;3.70;;;24.80;61.40;;;;;;4795109;58;21016;-29
2022/09/17 04:45:26;;;;;;;4.72;4.30;;;24.90;61.30;;;;;;4821760;54;21016;-29
2022/09/17 04:50:26;;;;;;;4.07;3.78;;;24.80;61.10;;;;;;4811566;54;21004;-28
2022/09/17 04:55:27;;;;;;;4.40;4.00;;;24.80;61.10;;;;;;4809317;54;21546;-29
2022/09/17 05:00:28;;;;;;;5.03;4.12;;;24.80;61.00;;;;;;4818940;54;21031;-34
2022/09/17 05:05:29;;;;;;;4.68;4.28;;;24.80;60.90;;;;;;4810205;54;21463;-26
2022/09/17 05:10:30;;;;;;;4.45;4.05;;;24.90;60.90;;;;;;4810215;54;21071;-32
2022/09/17 05:15:30;;;;;;;4.70;4.30;;;24.80;60.80;;;;;;4798867;54;21482;-31
2022/09/17 05:20:31;;;;;;;4.85;4.35;;;24.80;60.70;;;;;;4850906;54;21098;-31
2022/09/17 05:25:32;;;;;;;5.07;4.57;;;24.80;60.70;;;;;;4838468;54;21019;-36
2022/09/17 05:30:33;;;;;;;5.10;4.60;;;24.80;60.60;;;;;;4795139;58;21071;-29
2022/09/17 05:35:37;;;;;;;5.70;4.70;;;24.80;60.60;;;;;;4891087;54;21023;-29
2022/09/17 05:40:37;;;;;;;5.50;4.87;;;24.80;60.50;;;;;;4819709;54;21922;-28
2022/09/17 05:45:38;;;;;;;5.70;4.65;;;24.80;60.50;;;;;;4808558;54;21060;-29
2022/09/17 05:50:40;;;;;;;7.75;5.18;;;24.80;60.50;;;;;;4808973;54;21018;-29
2022/09/17 05:55:41;;;;;;;6.90;5.95;;;24.80;60.40;;;;;;4811958;54;21589;-29
2022/09/17 06:00:44;;;;;;;7.05;5.72;;;24.80;60.40;;;;;;4795234;54;21099;-30
2022/09/17 06:05:57;;;;;;;9.63;6.47;;;24.80;60.30;;;;;;4796017;55;21442;-28
2022/09/17 06:11:02;;;;;;;8.75;6.47;;;24.80;60.30;;;;;;4805782;54;21507;-27
2022/09/17 06:16:03;;;;;;;7.85;6.50;;;24.80;60.20;;;;;;4805404;54;21011;-28
2022/09/17 06:21:04;;;;;;;10.32;6.95;;;24.80;60.20;;;;;;4828749;54;20999;-27
2022/09/17 06:26:05;;;;;;;8.10;6.62;;;24.80;60.20;;;;;;4843537;54;21003;-27
2022/09/17 06:31:08;;;;;;;9.90;6.97;;;24.80;60.10;;;;;;4805704;54;20988;-28
2022/09/17 06:36:11;;;;;;;9.70;6.95;;;24.80;60.10;;;;;;4818489;54;21019;-28
2022/09/17 06:41:13;;;;;;;8.40;6.72;;;24.80;60.10;;;;;;4797237;54;21032;-28
2022/09/17 06:46:14;;;;;;;10.27;7.00;;;24.80;60.10;;;;;;4839168;54;21542;-28
2022/09/17 06:51:15;;;;;;;8.45;6.90;;;24.80;60.10;;;;;;4796081;58;21011;-27
2022/09/17 06:56:16;;;;;;;10.30;7.10;;;24.80;60.00;;;;;;4821456;54;21573;-34
2022/09/17 07:01:17;;;;;;;8.82;7.28;;;24.80;60.00;;;;;;4797808;54;21509;-30
2022/09/17 07:06:18;;;;;;;9.23;7.30;;;24.80;60.00;;;;;;4820415;54;21011;-27
2022/09/17 07:11:19;;;;;;;13.80;8.02;;;24.80;60.00;;;;;;4809809;54;21498;-28
2022/09/17 07:16:19;;;;;;;9.05;7.43;;;24.70;59.90;;;;;;4816974;54;21007;-27
2022/09/17 07:21:20;;;;;;;11.45;7.70;;;24.80;60.00;;;;;;4824345;54;21064;-35
2022/09/17 07:26:21;;;;;;;11.27;7.60;;;24.70;59.80;;;;;;4802397;54;21119;-29
2022/09/17 07:31:22;;;;;;;13.15;8.32;;;24.70;59.90;;;;;;4808343;54;21015;-30
2022/09/17 07:36:25;;;;;;;9.63;8.05;;;24.80;59.90;;;;;;4796516;55;21087;-28
2022/09/17 07:41:26;;;;;;;13.32;8.63;;;24.70;59.80;;;;;;4798256;54;21036;-29
2022/09/17 07:46:28;;;;;;;12.75;8.30;;;24.80;59.90;;;;;;4824418;54;20988;-28
2022/09/17 07:51:29;;;;;;;13.57;9.23;;;24.70;59.80;;;;;;4817962;54;21572;-29
2022/09/17 07:56:30;;;;;;;14.10;9.88;;;24.70;59.90;;;;;;4797262;54;21011;-33
2022/09/17 08:01:35;;;;;;;11.77;8.75;;;24.70;59.80;;;;;;4808546;54;21115;-36
2022/09/17 08:06:37;;;;;;;14.45;9.45;;;24.80;59.80;;;;;;4817961;54;21512;-29
2022/09/17 08:11:37;;;;;;;14.35;9.48;;;24.70;59.80;;;;;;4816224;54;21087;-31
2022/09/17 08:16:38;;;;;;;15.43;10.18;;;24.70;59.80;;;;;;4827474;54;21088;-27
2022/09/17 08:21:39;;;;;;;16.10;9.52;;;24.70;59.80;;;;;;4818157;54;21570;-28
2022/09/17 08:26:40;;;;;;;14.77;10.10;;;24.70;59.80;;;;;;4815794;54;21527;-28
2022/09/17 08:31:41;;;;;;;14.20;10.55;;;24.70;59.90;;;;;;4814682;54;21087;-28
2022/09/17 08:36:42;;;;;;;15.93;10.98;;;24.70;59.90;;;;;;4836303;54;21039;-27
2022/09/17 08:42:50;;;;;;;14.87;11.20;;;24.70;59.80;;;;;;4817665;54;21091;-28
2022/09/17 08:47:54;;;;;;;16.70;11.50;;;24.70;59.80;;;;;;4825038;54;21974;-32
2022/09/17 08:55:14;;;;;;;14.52;10.63;;;24.70;59.90;;;;;;4831972;54;21123;-32
2022/09/17 09:00:20;;;;;;;16.48;11.68;;;24.70;59.90;;;;;;4799771;54;21497;-32
2022/09/17 09:05:29;;;;;;;17.90;12.25;;;24.70;59.90;;;;;;4833343;54;21004;-28
2022/09/17 09:10:48;;;;;;;16.45;12.25;;;24.70;59.90;;;;;;4855528;54;21490;-30
2022/09/17 09:16:12;;;;;;;22.20;13.48;;;24.70;59.90;;;;;;4799974;54;20984;-30
2022/09/17 09:23:53;;;;;;;19.08;13.68;;;24.70;59.90;;;;;;4811927;54;21106;-29
2022/09/17 09:30:24;;;;;;;21.58;14.52;;;24.70;60.00;;;;;;4817190;54;21004;-32
2022/09/17 09:35:27;;;;;;;20.05;14.85;;;24.70;60.60;;;;;;4811545;54;21485;-29
2022/09/17 09:40:52;;;;;;;18.33;14.27;;;24.70;60.00;;;;;;4799948;54;21016;-29
2022/09/17 09:48:41;;;;;;;22.13;14.93;;;24.70;60.00;;;;;;4810645;54;21063;-30
2022/09/17 09:55:08;;;;;;;25.17;16.48;;;24.70;60.00;;;;;;4802539;54;21588;-27
2022/09/17 10:00:28;;;;;;;23.77;16.37;;;24.70;59.90;;;;;;4802199;54;21011;-29
2022/09/17 10:05:30;;;;;;;22.02;16.05;;;24.70;60.00;;;;;;4819807;54;21600;-27
2022/09/17 10:10:31;;;;;;;22.02;16.75;;;24.70;59.90;;;;;;4813615;54;22441;-29
2022/09/17 10:15:32;;;;;;;23.23;17.08;;;24.70;60.00;;;;;;4795100;58;21020;-30
2022/09/17 10:20:33;;;;;;;23.62;17.80;;;24.70;59.90;;;;;;4814994;54;21083;-26
2022/09/17 10:25:34;;;;;;;24.17;17.65;;;24.70;59.90;;;;;;4833149;54;21060;-28
2022/09/17 10:30:35;;;;;;;24.20;17.95;;;24.70;59.90;;;;;;4821993;54;21103;-31
2022/09/17 10:35:36;;;;;;;22.27;16.85;;;24.70;59.90;;;;;;4817098;54;21485;-30
2022/09/17 10:40:37;;;;;;;24.00;17.33;;;24.70;60.00;;;;;;4847931;54;21071;-27
2022/09/17 10:45:42;;;;;;;24.20;17.48;;;24.70;60.00;;;;;;4795192;58;21568;-29
2022/09/17 10:50:54;;;;;;;28.02;18.27;;;24.70;59.90;;;;;;4799127;54;21020;-29
2022/09/17 10:56:20;;;;;;;26.08;17.83;;;24.70;59.90;;;;;;4821199;54;21028;-27
2022/09/17 11:01:47;;;;;;;28.23;18.93;;;24.70;60.00;;;;;;4819615;54;21048;-29
2022/09/17 11:07:20;;;;;;;23.52;18.75;;;24.70;59.90;;;;;;4812339;54;21036;-29
2022/09/17 11:13:50;;;;;;;25.20;18.75;;;24.70;59.90;;;;;;4814177;54;21098;-28
2022/09/17 11:20:31;;;;;;;25.55;19.35;;;24.70;59.90;;;;;;4796382;54;21016;-29
2022/09/17 11:28:52;;;;;;;25.15;19.05;;;24.70;60.00;;;;;;4807568;54;21518;-29
2022/09/17 11:34:21;;;;;;;24.55;18.83;;;24.60;59.80;;;;;;4799333;54;21090;-30
2022/09/17 11:39:38;;;;;;;25.60;19.37;;;24.70;59.80;;;;;;4795096;54;21060;-30
2022/09/17 11:44:57;;;;;;;24.65;19.20;;;24.70;59.80;;;;;;4805820;54;21493;-29
2022/09/17 11:51:17;;;;;;;25.35;19.17;;;24.70;59.80;;;;;;4803309;54;20988;-32
2022/09/17 11:57:34;;;;;;;21.73;16.98;;;24.70;59.80;;;;;;4804452;54;20983;-29
2022/09/17 12:02:52;;;;;;;23.00;18.35;;;24.70;59.80;;;;;;4809986;54;20999;-27
2022/09/17 12:08:02;;;;;;;23.23;18.50;;;24.70;59.80;;;;;;4807381;54;21072;-27
2022/09/17 12:13:37;;;;;;;21.60;17.73;;;24.60;59.70;;;;;;4844273;54;21031;-26
2022/09/17 12:19:41;;;;;;;20.85;18.20;;;24.70;59.70;;;;;;4795320;58;21059;-29
2022/09/17 12:24:42;;;;;;;21.67;18.67;;;24.60;59.70;;;;;;4842179;54;21494;-28
2022/09/17 12:33:20;;;;;;;23.90;18.83;;;24.60;59.60;;;;;;4813097;54;21107;-28
2022/09/17 12:40:14;;;;;;;25.10;18.45;;;24.60;59.60;;;;;;4824507;54;20996;-30
2022/09/17 12:48:05;;;;;;;23.98;18.73;;;24.60;59.50;;;;;;4813062;54;21011;-28
2022/09/17 12:56:48;;;;;;;22.50;17.20;;;24.60;59.50;;;;;;4801146;54;21544;-27
2022/09/17 13:01:59;;;;;;;22.15;17.90;;;24.60;59.50;;;;;;4796009;54;20964;-31
2022/09/17 13:07:29;;;;;;;20.52;17.27;;;24.60;59.40;;;;;;4796388;54;21109;-29
2022/09/17 13:14:34;;;;;;;21.92;17.60;;;24.60;59.40;;;;;;4810014;54;20992;-28
2022/09/17 13:19:55;;;;;;;24.17;17.98;;;24.60;59.40;;;;;;4830702;54;21008;-29
2022/09/17 13:25:29;;;;;;;23.40;18.30;;;24.60;59.40;;;;;;4815695;54;21076;-36
2022/09/17 13:30:58;;;;;;;25.10;19.25;;;24.60;59.30;;;;;;4802833;54;21127;-30
2022/09/17 13:36:02;;;;;;;25.50;18.83;;;24.60;59.30;;;;;;4796346;54;21004;-29
2022/09/17 13:41:23;;;;;;;26.30;19.48;;;24.60;59.30;;;;;;4816908;54;21016;-28
2022/09/17 13:46:27;;;;;;;25.60;20.25;;;24.60;59.20;;;;;;4795666;58;21541;-28
2022/09/17 13:51:48;;;;;;;28.38;19.80;;;24.60;59.20;;;;;;4795272;58;21147;-30
2022/09/17 13:57:02;;;;;;;25.95;19.87;;;24.60;59.20;;;;;;4795474;58;21059;-28
2022/09/17 14:03:55;;;;;;;26.00;19.92;;;24.50;59.10;;;;;;4833080;54;21051;-27
2022/09/17 14:08:56;;;;;;;25.98;19.55;;;24.50;59.10;;;;;;4805106;54;21478;-30
2022/09/17 14:17:57;;;;;;;27.00;19.62;;;24.50;59.10;;;;;;4799625;54;21008;-29
2022/09/17 14:23:02;;;;;;;27.60;18.87;;;24.60;59.10;;;;;;4802921;54;21561;-32
2022/09/17 14:33:25;;;;;;;;;;;24.50;59.00;;;;;;4798664;54;21031;-30
2022/09/17 14:38:43;;;;;;;23.65;18.10;;;24.50;59.00;;;;;;4807741;54;20127;-29
2022/09/17 14:44:07;;;;;;;24.35;18.45;;;24.50;58.90;;;;;;4848228;54;20991;-29
2022/09/17 14:49:41;;;;;;;22.83;17.17;;;24.50;58.90;;;;;;4834341;54;21008;-36
2022/09/17 14:54:43;;;;;;;23.42;17.73;;;24.50;58.90;;;;;;4866245;54;21185;-27
2022/09/17 14:59:50;;;;;;;22.05;16.02;;;24.50;58.90;;;;;;4816512;54;21644;-29
2022/09/17 15:04:51;;;;;;;;;;;24.50;58.90;;;;;;4811371;54;21020;-33
2022/09/17 15:09:54;;;;;;;19.87;16.30;;;24.50;58.90;;;;;;4799989;54;20075;-28
2022/09/17 15:14:56;;;;;;;19.70;15.55;;;24.50;58.80;;;;;;4822398;54;21035;-31
2022/09/17 15:19:58;;;;;;;19.42;15.18;;;24.50;58.80;;;;;;4814276;54;21079;-29
2022/09/17 15:25:09;;;;;;;19.70;16.08;;;24.50;58.80;;;;;;4809834;54;20999;-28
2022/09/17 15:30:21;;;;;;;19.65;15.10;;;24.50;58.80;;;;;;4826059;54;21079;-30
2022/09/17 15:35:32;;;;;;;22.45;15.32;;;24.50;58.80;;;;;;4838719;54;21032;-27
2022/09/17 15:40:43;;;;;;;18.37;14.25;;;24.50;58.70;;;;;;4829661;54;20991;-34
2022/09/17 15:45:44;;;;;;;17.35;14.02;;;24.50;58.70;;;;;;4815740;54;21051;-29
2022/09/17 15:50:56;;;;;;;18.15;14.32;;;24.50;58.70;;;;;;4819428;54;22268;-29
2022/09/17 15:56:15;;;;;;;17.00;13.60;;;24.40;58.60;;;;;;4795535;54;21088;-32
2022/09/17 16:02:01;;;;;;;17.30;14.13;;;24.50;58.60;;;;;;4817485;54;21016;-27
2022/09/17 16:07:47;;;;;;;15.75;13.75;;;24.40;58.40;;;;;;4795970;58;20993;-36
2022/09/17 16:12:49;;;;;;;18.25;14.32;;;24.40;58.40;;;;;;4834116;54;21507;-28
2022/09/17 16:17:49;;;;;;;17.67;13.95;;;24.40;58.40;;;;;;4825194;54;21438;-35
2022/09/17 16:22:51;;;;;;;17.35;13.55;;;24.40;58.50;;;;;;4801118;54;21007;-29
2022/09/17 16:27:59;;;;;;;16.58;13.80;;;24.50;58.50;;;;;;4848531;54;21003;-29
2022/09/17 16:33:02;;;;;;;14.75;12.68;;;24.40;58.40;;;;;;4818644;54;21003;-28
2022/09/17 16:38:04;;;;;;;16.17;13.60;;;24.40;58.50;;;;;;4829588;54;21592;-29
2022/09/17 16:43:04;;;;;;;15.63;12.60;;;24.40;58.50;;;;;;4795893;58;21509;-33
2022/09/17 16:48:06;;;;;;;15.75;13.10;;;24.40;58.60;;;;;;4812382;54;21024;-29
2022/09/17 16:53:07;;;;;;;16.15;13.02;;;24.40;58.40;;;;;;4863736;54;21060;-28
2022/09/17 16:58:07;;;;;;;16.83;13.48;;;24.40;58.40;;;;;;4808836;54;21506;-28
2022/09/17 17:03:11;;;;;;;15.82;12.85;;;24.40;58.50;;;;;;4798796;54;21529;-28
2022/09/17 17:08:13;;;;;;;15.35;12.68;;;24.40;58.50;;;;;;4834979;54;21497;-27
2022/09/17 17:13:14;;;;;;;15.45;12.48;;;24.40;58.50;;;;;;4818748;54;21457;-27
2022/09/17 17:18:18;;;;;;;16.08;12.68;;;24.40;58.50;;;;;;4808251;54;21534;-33
2022/09/17 17:23:19;;;;;;;17.62;13.10;;;24.40;58.60;;;;;;4802108;54;20991;-29
2022/09/17 17:28:20;;;;;;;17.30;14.63;;;24.40;58.50;;;;;;4803604;54;22605;-27
2022/09/17 17:33:20;;;;;;;15.70;13.20;;;24.40;58.80;;;;;;4802671;54;21008;-29
2022/09/17 17:38:21;;;;;;;17.27;13.75;;;24.40;58.50;;;;;;4831226;54;21056;-29
2022/09/17 17:43:22;;;;;;;18.00;13.27;;;24.40;58.50;;;;;;4805767;54;21008;-31
2022/09/17 17:48:23;;;;;;;16.27;13.68;;;24.40;58.50;;;;;;4798260;54;21137;-30
2022/09/17 17:53:24;;;;;;;16.00;13.02;;;24.40;58.50;;;;;;4821792;54;21084;-27
2022/09/17 17:58:25;;;;;;;16.90;13.62;;;24.40;58.60;;;;;;4805130;54;21569;-31
2022/09/17 18:03:26;;;;;;;15.88;14.13;;;24.40;58.60;;;;;;4804395;54;21059;-28
2022/09/17 18:08:27;;;;;;;16.73;13.93;;;24.40;58.60;;;;;;4806102;54;21040;-29
2022/09/17 18:13:28;;;;;;;16.80;13.50;;;24.40;58.60;;;;;;4800197;54;21066;-33
2022/09/17 18:18:33;;;;;;;16.90;13.48;;;24.40;58.60;;;;;;4795870;54;21035;-29
2022/09/17 18:23:35;;;;;;;17.73;14.05;;;24.40;58.60;;;;;;4796773;58;21056;-28
2022/09/17 18:28:36;;;;;;;16.73;13.50;;;24.40;58.60;;;;;;4798635;54;21059;-28
2022/09/17 18:33:37;;;;;;;15.75;13.80;;;24.40;58.60;;;;;;4826504;54;21175;-28
2022/09/17 18:38:38;;;;;;;14.82;13.32;;;24.40;58.70;;;;;;4821556;54;21556;-32
2022/09/17 18:43:40;;;;;;;15.98;14.18;;;24.40;58.70;;;;;;4839973;54;21020;-28
2022/09/17 18:48:40;;;;;;;16.83;14.32;;;24.40;58.60;;;;;;4796445;54;21059;-32
2022/09/17 18:53:41;;;;;;;16.23;13.57;;;24.40;58.60;;;;;;4798298;54;21027;-28
2022/09/17 18:58:45;;;;;;;15.90;13.70;;;24.40;58.70;;;;;;4896404;54;21079;-29
2022/09/17 19:03:46;;;;;;;15.88;14.10;;;24.40;58.60;;;;;;4821053;54;21064;-30
2022/09/17 19:08:47;;;;;;;15.90;14.13;;;24.30;58.60;;;;;;4896528;54;21024;-33
2022/09/17 19:13:51;;;;;;;16.62;14.10;;;24.40;58.50;;;;;;4821822;54;21004;-30
2022/09/17 19:18:52;;;;;;;17.80;14.55;;;24.40;58.60;;;;;;4799596;54;21063;-29
2022/09/17 19:23:53;;;;;;;15.68;13.15;;;24.30;58.60;;;;;;4817565;54;21019;-30
2022/09/17 19:28:57;;;;;;;15.93;14.05;;;24.30;58.60;;;;;;4817786;54;21031;-26
2022/09/17 19:34:00;;;;;;;16.73;14.55;;;24.30;58.60;;;;;;4835571;54;21011;-27
2022/09/17 19:39:01;;;;;;;17.48;14.27;;;24.30;58.60;;;;;;4897625;54;21004;-28
2022/09/17 19:44:04;;;;;;;16.95;14.57;;;24.30;58.60;;;;;;4794693;58;21024;-28
2022/09/17 19:49:04;;;;;;;16.60;14.82;;;24.30;58.50;;;;;;4831727;54;21083;-31
2022/09/17 19:54:06;;;;;;;17.15;14.50;;;24.30;58.10;;;;;;4795241;55;21031;-28
2022/09/17 19:59:07;;;;;;;16.87;14.85;;;24.30;58.50;;;;;;4805162;54;21545;-28
2022/09/17 20:04:08;;;;;;;17.10;15.20;;;24.30;58.40;;;;;;4860763;54;21020;-27
2022/09/17 20:09:09;;;;;;;16.70;13.95;;;24.30;58.50;;;;;;4795194;58;21011;-27
2022/09/17 20:14:11;;;;;;;16.85;14.30;;;24.30;58.50;;;;;;4797808;54;21060;-28
2022/09/17 20:19:15;;;;;;;17.20;14.73;;;24.30;58.40;;;;;;4799025;54;21506;-28
2022/09/17 20:24:16;;;;;;;17.35;14.77;;;24.30;58.40;;;;;;4795761;58;21059;-27
2022/09/17 20:29:17;;;;;;;16.60;14.90;;;24.30;58.40;;;;;;4796435;54;21099;-29
2022/09/17 20:34:18;;;;;;;16.55;13.15;;;24.30;58.30;;;;;;4803126;54;20996;-28
2022/09/17 20:39:18;;;;;;;14.38;12.88;;;24.30;58.00;;;;;;4846828;54;21071;-27
2022/09/17 20:44:19;;;;;;;15.27;12.82;;;24.30;58.30;;;;;;4814096;54;21016;-30
2022/09/17 20:49:20;;;;;;;15.57;13.50;;;24.30;58.30;;;;;;4795842;58;21008;-26
2022/09/17 20:54:21;;;;;;;15.15;12.95;;;24.30;58.30;;;;;;4794287;55;21502;-28
2022/09/17 20:59:28;;;;;;;15.07;13.48;;;24.30;58.20;;;;;;4803928;54;21059;-28
2022/09/17 21:04:29;;;;;;;14.48;12.95;;;24.30;58.20;;;;;;4796413;54;21489;-28
2022/09/17 21:09:30;;;;;;;14.40;12.55;;;24.30;58.10;;;;;;4819104;54;21040;-31
2022/09/17 21:14:31;;;;;;;13.25;11.75;;;24.20;58.10;;;;;;4811322;54;21008;-32
2022/09/17 21:19:32;;;;;;;13.77;12.07;;;24.30;58.10;;;;;;4808630;54;21055;-26
2022/09/17 21:24:32;;;;;;;12.90;11.60;;;24.20;58.00;;;;;;4796402;54;21031;-26
2022/09/17 21:29:33;;;;;;;14.05;11.45;;;24.20;58.00;;;;;;4795551;58;21040;-28
2022/09/17 21:34:34;;;;;;;13.45;11.40;;;24.20;58.00;;;;;;4797151;54;21008;-32
2022/09/17 21:39:35;;;;;;;13.40;11.18;;;24.20;57.90;;;;;;4796484;54;21167;-27
2022/09/17 21:44:35;;;;;;;12.40;11.10;;;24.20;57.90;;;;;;4813223;54;21028;-29
2022/09/17 21:49:36;;;;;;;12.15;10.85;;;24.20;57.90;;;;;;4799682;54;20996;-29
2022/09/17 21:54:37;;;;;;;12.30;10.90;;;24.20;57.90;;;;;;4821503;54;21051;-29
2022/09/17 21:59:38;;;;;;;11.88;10.65;;;24.20;57.80;;;;;;4825059;54;20996;-32
2022/09/17 22:04:39;;;;;;;12.40;11.07;;;24.20;57.80;;;;;;4796565;58;21000;-32
2022/09/17 22:09:39;;;;;;;11.68;10.48;;;24.20;58.30;;;;;;4800342;54;21000;-31
2022/09/17 22:14:40;;;;;;;10.73;9.68;;;24.20;57.90;;;;;;4816223;54;21019;-33
2022/09/17 22:19:41;;;;;;;10.38;9.27;;;24.20;57.80;;;;;;4801951;54;21010;-30
2022/09/17 22:24:43;;;;;;;11.45;10.25;;;24.30;57.90;;;;;;4812163;54;21630;-32
2022/09/17 22:29:44;;;;;;;10.40;9.30;;;24.20;57.80;;;;;;4795251;58;21446;-32
2022/09/17 22:34:44;;;;;;;11.15;9.95;;;24.20;57.90;;;;;;4802277;54;21008;-29
2022/09/17 22:39:45;;;;;;;10.82;9.52;;;24.20;57.90;;;;;;4801660;54;21020;-33
2022/09/17 22:44:46;;;;;;;10.10;9.10;;;24.20;57.90;;;;;;4797470;54;21087;-29
2022/09/17 22:49:47;;;;;;;10.32;9.00;;;24.20;57.80;;;;;;4824481;54;21000;-32
2022/09/17 22:54:47;;;;;;;10.05;9.05;;;24.20;57.80;;;;;;4794242;58;21092;-33
2022/09/17 22:59:48;;;;;;;9.98;8.98;;;24.20;57.80;;;;;;4798241;54;21502;-28
2022/09/17 23:04:49;;;;;;;9.45;8.52;;;24.20;57.80;;;;;;4842528;54;21570;-31
2022/09/17 23:09:50;;;;;;;9.30;8.40;;;24.10;57.80;;;;;;4818812;54;20972;-31
2022/09/17 23:14:51;;;;;;;9.02;8.13;;;24.10;57.80;;;;;;4825669;54;21465;-29
2022/09/17 23:19:52;;;;;;;10.10;9.00;;;24.10;57.80;;;;;;4830633;54;21024;-31
2022/09/17 23:24:53;;;;;;;9.10;8.20;;;24.10;57.90;;;;;;4803079;54;21004;-31
2022/09/17 23:29:54;;;;;;;8.75;7.95;;;24.10;57.80;;;;;;4798191;54;20992;-28
2022/09/17 23:34:54;;;;;;;9.38;8.38;;;24.10;57.70;;;;;;4829195;54;21517;-29
2022/09/17 23:39:55;;;;;;;9.02;8.05;;;24.10;57.70;;;;;;4794827;58;21454;-30
2022/09/17 23:44:56;;;;;;;7.93;7.07;;;24.10;57.70;;;;;;4808474;54;20996;-28
2022/09/17 23:50:00;;;;;;;9.15;8.25;;;24.10;57.80;;;;;;4803887;54;21019;-34
2022/09/17 23:55:01;;;;;;;8.30;7.47;;;24.10;57.70;;;;;;4814784;54;21044;-28
